Time;durP1;ratioP1;P1;durP2;ratioP2;P2;SDS_P1;SDS_P2;PMS_P1;PMS_P2;Temp;Humidity;BMP_temperature;BMP_pressure;BME280_temperature;BME280_humidity;BME280_pressure;Samples;Min_cycle;Max_cycle;Signal;HPM_P1;HPM_P2
2022/05/22 00:02:21;;;;;;;1.90;1.20;;;24.80;50.50;;;;;;5090604;28;20398;-67
2022/05/22 00:04:48;;;;;;;3.08;1.30;;;24.80;50.50;;;;;;5090986;28;20381;-67
2022/05/22 00:07:13;;;;;;;2.72;1.30;;;24.80;50.50;;;;;;5091339;28;20777;-67
2022/05/22 00:09:39;;;;;;;2.30;1.30;;;24.80;50.60;;;;;;5091441;28;20382;-67
2022/05/22 00:12:08;;;;;;;2.40;1.30;;;24.80;50.60;;;;;;5091302;28;20473;-67
2022/05/22 00:14:35;;;;;;;2.67;1.30;;;24.70;50.50;;;;;;5091038;28;20378;-67
2022/05/22 00:17:01;;;;;;;2.35;1.50;;;24.80;50.60;;;;;;5091298;28;20723;-67
2022/05/22 00:19:29;;;;;;;2.55;1.33;;;24.70;50.50;;;;;;5093063;28;20385;-67
2022/05/22 00:21:55;;;;;;;2.63;1.35;;;24.70;50.50;;;;;;5095393;28;20467;-67
2022/05/22 00:24:24;;;;;;;2.47;1.30;;;24.70;50.60;;;;;;5094956;28;20392;-67
2022/05/22 00:26:50;;;;;;;2.05;1.13;;;24.70;50.50;;;;;;5095121;28;20877;-67
2022/05/22 00:29:16;;;;;;;2.35;1.33;;;24.70;50.60;;;;;;5095112;28;20397;-67
2022/05/22 00:31:42;;;;;;;2.25;1.30;;;24.70;50.60;;;;;;5095288;28;20382;-67
2022/05/22 00:34:08;;;;;;;3.55;1.40;;;24.70;50.60;;;;;;5094959;28;20392;-67
2022/05/22 00:36:34;;;;;;;1.97;1.40;;;24.70;50.60;;;;;;5094966;28;20545;-67
2022/05/22 00:39:01;;;;;;;2.53;1.30;;;24.70;50.60;;;;;;5095100;28;20465;-67
2022/05/22 00:41:27;;;;;;;2.00;1.30;;;24.70;50.60;;;;;;5093838;28;20527;-67
2022/05/22 00:43:55;;;;;;;2.05;1.15;;;24.70;50.60;;;;;;5093778;28;20397;-67
2022/05/22 00:46:23;;;;;;;1.83;1.30;;;24.70;50.60;;;;;;5094584;28;20895;-67
2022/05/22 00:48:53;;;;;;;2.40;1.20;;;24.70;50.60;;;;;;5093626;28;20797;-67
2022/05/22 00:51:32;;;;;;;2.80;1.20;;;24.70;50.60;;;;;;5094825;28;20401;-67
2022/05/22 00:54:12;;;;;;;2.13;1.27;;;24.70;50.60;;;;;;5094916;28;20404;-68
2022/05/22 00:56:45;;;;;;;1.92;1.30;;;24.70;50.60;;;;;;5094542;28;20416;-67
2022/05/22 00:59:18;;;;;;;1.60;1.20;;;24.70;50.60;;;;;;5094761;28;20393;-67
2022/05/22 01:01:46;;;;;;;1.92;1.23;;;24.70;50.60;;;;;;5094691;28;20423;-67
2022/05/22 01:04:19;;;;;;;2.08;1.27;;;24.70;50.60;;;;;;5094415;28;20742;-67
2022/05/22 01:06:45;;;;;;;2.40;1.40;;;24.70;50.60;;;;;;5094654;28;20386;-67
2022/05/22 01:09:11;;;;;;;1.63;1.30;;;24.70;50.60;;;;;;5094634;28;20723;-67
2022/05/22 01:11:38;;;;;;;2.13;1.43;;;24.70;50.70;;;;;;5094517;28;20378;-67
2022/05/22 01:14:11;;;;;;;2.37;1.50;;;24.70;50.60;;;;;;5094497;28;20893;-67
2022/05/22 01:16:36;;;;;;;1.90;1.20;;;24.60;50.60;;;;;;5094077;28;20459;-67
2022/05/22 01:19:11;;;;;;;2.50;1.40;;;24.70;50.60;;;;;;5094348;28;20397;-67
2022/05/22 01:21:37;;;;;;;1.70;1.50;;;24.70;50.60;;;;;;5094456;28;20465;-67
2022/05/22 01:24:04;;;;;;;1.88;1.33;;;24.60;50.60;;;;;;5094289;28;20394;-67
2022/05/22 01:26:30;;;;;;;1.80;1.33;;;24.60;50.60;;;;;;5093802;28;20890;-67
2022/05/22 01:28:56;;;;;;;2.20;1.35;;;24.60;50.50;;;;;;5094119;28;20457;-67
2022/05/22 01:31:22;;;;;;;2.00;1.30;;;24.60;50.60;;;;;;5093416;28;20738;-67
2022/05/22 01:33:48;;;;;;;2.20;1.40;;;24.60;50.60;;;;;;5092205;28;20796;-68
2022/05/22 01:36:16;;;;;;;1.70;1.30;;;24.60;50.60;;;;;;5093256;28;20398;-67
2022/05/22 01:38:42;;;;;;;1.75;1.25;;;24.60;50.60;;;;;;5093722;28;20389;-67
2022/05/22 01:41:07;;;;;;;2.20;1.50;;;24.60;50.60;;;;;;5093938;28;20385;-67
2022/05/22 01:43:34;;;;;;;2.40;1.30;;;24.60;50.60;;;;;;5093884;28;20382;-67
2022/05/22 01:46:01;;;;;;;2.75;1.40;;;24.60;50.60;;;;;;5092495;28;20382;-67
2022/05/22 01:48:26;;;;;;;2.10;1.40;;;24.60;50.60;;;;;;5093399;28;20420;-66
2022/05/22 01:50:52;;;;;;;1.67;1.20;;;24.60;50.50;;;;;;5093483;28;20445;-67
2022/05/22 01:53:20;;;;;;;1.70;1.30;;;24.60;50.50;;;;;;5093760;28;20389;-66
2022/05/22 01:55:47;;;;;;;1.90;1.20;;;24.60;50.60;;;;;;5093613;28;20475;-67
2022/05/22 01:58:12;;;;;;;1.58;1.20;;;24.60;50.60;;;;;;5093122;28;20413;-67
2022/05/22 02:00:39;;;;;;;1.90;1.30;;;24.60;50.50;;;;;;5093341;28;20382;-67
2022/05/22 02:03:06;;;;;;;2.03;1.23;;;24.60;50.50;;;;;;5092228;28;20390;-67
2022/05/22 02:05:32;;;;;;;2.08;1.33;;;24.60;50.60;;;;;;5093459;28;20450;-67
2022/05/22 02:10:43;;;;;;;2.10;1.30;;;24.50;50.50;;;;;;5093060;28;20389;-66
2022/05/22 02:13:09;;;;;;;1.88;1.38;;;24.50;50.50;;;;;;5093385;28;20844;-67
2022/05/22 02:15:35;;;;;;;2.38;1.40;;;24.50;50.50;;;;;;5091643;28;20418;-67
2022/05/22 02:18:00;;;;;;;1.70;1.30;;;24.50;50.50;;;;;;5093108;28;20424;-67
2022/05/22 02:20:26;;;;;;;1.77;1.20;;;24.50;50.50;;;;;;5092721;28;20426;-66
2022/05/22 02:22:54;;;;;;;2.17;1.30;;;24.50;50.50;;;;;;5093109;28;20417;-67
2022/05/22 02:25:24;;;;;;;2.22;1.40;;;24.50;50.50;;;;;;5093153;28;20869;-67
2022/05/22 02:27:50;;;;;;;1.92;1.30;;;24.50;50.50;;;;;;5093095;28;20445;-67
2022/05/22 02:30:20;;;;;;;1.90;1.40;;;24.50;50.50;;;;;;5092754;28;20453;-66
2022/05/22 02:32:45;;;;;;;1.88;1.30;;;24.50;50.50;;;;;;5091551;28;20465;-67
2022/05/22 02:35:13;;;;;;;2.83;1.33;;;24.50;50.50;;;;;;5092700;28;20805;-67
2022/05/22 02:37:45;;;;;;;1.92;1.30;;;24.50;50.50;;;;;;5092794;28;20492;-67
2022/05/22 02:40:12;;;;;;;2.25;1.30;;;24.50;50.50;;;;;;5092751;28;20386;-67
2022/05/22 02:42:43;;;;;;;3.10;1.42;;;24.50;50.50;;;;;;5091406;28;20386;-67
2022/05/22 02:45:10;;;;;;;2.03;1.30;;;24.50;50.50;;;;;;5091504;28;20441;-66
2022/05/22 02:47:36;;;;;;;1.90;1.20;;;24.50;50.50;;;;;;5092725;28;20461;-67
2022/05/22 02:50:03;;;;;;;1.80;1.30;;;24.40;50.40;;;;;;5092169;28;20926;-67
2022/05/22 02:52:29;;;;;;;1.45;1.20;;;24.40;50.40;;;;;;5091341;28;20410;-67
2022/05/22 02:54:55;;;;;;;1.95;1.50;;;24.40;50.40;;;;;;5092387;28;20390;-67
2022/05/22 02:57:25;;;;;;;1.80;1.27;;;24.50;50.50;;;;;;5092339;28;20481;-67
2022/05/22 02:59:52;;;;;;;2.40;1.20;;;24.40;50.40;;;;;;5092479;28;20890;-67
2022/05/22 03:02:18;;;;;;;1.88;1.40;;;24.40;51.00;;;;;;5092142;28;20409;-67
2022/05/22 03:04:44;;;;;;;1.77;1.50;;;24.40;50.30;;;;;;5092056;28;20386;-67
2022/05/22 03:07:11;;;;;;;2.10;1.30;;;24.40;50.30;;;;;;5092333;28;20481;-67
2022/05/22 03:09:39;;;;;;;1.70;1.30;;;24.40;50.30;;;;;;5091009;28;20480;-67
2022/05/22 03:12:10;;;;;;;2.40;1.30;;;24.40;50.30;;;;;;5092227;28;20390;-67
2022/05/22 03:14:36;;;;;;;2.22;1.40;;;24.40;50.30;;;;;;5091729;28;20401;-67
2022/05/22 03:17:01;;;;;;;2.10;1.30;;;24.40;50.30;;;;;;5091917;28;20414;-67
2022/05/22 03:19:27;;;;;;;1.93;1.33;;;24.40;50.30;;;;;;5092052;28;20378;-67
2022/05/22 03:21:53;;;;;;;1.85;1.40;;;24.40;50.30;;;;;;5092005;28;20523;-67
2022/05/22 03:24:19;;;;;;;1.60;1.30;;;24.40;50.30;;;;;;5091789;28;20386;-67
2022/05/22 03:26:45;;;;;;;1.70;1.27;;;24.40;50.30;;;;;;5091747;28;20386;-67
2022/05/22 03:29:11;;;;;;;1.85;1.38;;;24.40;50.20;;;;;;5091964;28;20391;-67
2022/05/22 03:31:37;;;;;;;1.90;1.40;;;24.40;50.30;;;;;;5091949;28;20386;-67
2022/05/22 03:34:03;;;;;;;2.00;1.33;;;24.40;50.30;;;;;;5091715;28;20451;-67
2022/05/22 03:36:29;;;;;;;1.85;1.60;;;24.40;50.30;;;;;;5091177;28;20409;-66
2022/05/22 03:38:55;;;;;;;2.00;1.60;;;24.40;50.30;;;;;;5091760;28;20472;-67
2022/05/22 03:41:21;;;;;;;1.85;1.55;;;24.40;50.30;;;;;;5091761;28;20489;-68
2022/05/22 03:43:47;;;;;;;1.70;1.50;;;24.40;50.20;;;;;;5091783;28;20382;-66
2022/05/22 03:46:12;;;;;;;1.70;1.50;;;24.40;50.30;;;;;;5091716;28;20719;-67
2022/05/22 03:48:38;;;;;;;1.60;1.30;;;24.30;50.20;;;;;;5090117;28;20809;-66
2022/05/22 03:51:04;;;;;;;1.90;1.40;;;24.40;50.20;;;;;;5090151;28;20455;-67
2022/05/22 03:53:30;;;;;;;1.83;1.43;;;24.40;50.20;;;;;;5090166;28;20427;-66
2022/05/22 03:55:55;;;;;;;1.85;1.40;;;24.30;50.10;;;;;;5091527;28;20382;-67
2022/05/22 03:58:21;;;;;;;1.80;1.40;;;24.40;50.20;;;;;;5091351;28;20386;-66
2022/05/22 04:00:46;;;;;;;2.80;1.48;;;24.40;50.20;;;;;;5091322;28;20469;-66
2022/05/22 04:03:12;;;;;;;2.00;1.40;;;24.40;50.20;;;;;;5090231;28;20781;-66
2022/05/22 04:05:38;;;;;;;2.30;1.67;;;24.30;50.10;;;;;;5091040;28;20384;-65
2022/05/22 04:08:05;;;;;;;2.30;1.50;;;24.30;50.10;;;;;;5091041;28;20394;-65
2022/05/22 04:10:30;;;;;;;1.90;1.30;;;24.30;50.10;;;;;;5090793;28;20511;-65
2022/05/22 04:12:56;;;;;;;2.30;1.50;;;24.30;50.10;;;;;;5091398;28;20476;-65
2022/05/22 04:15:22;;;;;;;2.78;1.50;;;24.30;50.10;;;;;;5091425;28;20440;-65
2022/05/22 04:17:49;;;;;;;1.90;1.40;;;24.30;50.00;;;;;;5089931;28;20413;-65
2022/05/22 04:20:17;;;;;;;1.45;1.30;;;24.30;50.00;;;;;;5090105;28;20382;-65
2022/05/22 04:25:27;;;;;;;2.00;1.40;;;24.40;50.10;;;;;;5091361;28;20466;-65
2022/05/22 04:27:53;;;;;;;2.63;1.73;;;24.30;50.00;;;;;;5091224;28;20420;-65
2022/05/22 04:30:20;;;;;;;2.70;1.50;;;24.40;50.00;;;;;;5091165;28;20712;-66
2022/05/22 04:32:47;;;;;;;2.75;1.42;;;24.40;50.20;;;;;;5089399;28;20481;-65
2022/05/22 04:35:13;;;;;;;2.40;1.40;;;24.40;50.10;;;;;;5091270;28;20389;-65
2022/05/22 04:37:39;;;;;;;2.25;1.60;;;24.40;50.10;;;;;;5091134;28;20418;-65
2022/05/22 04:40:06;;;;;;;2.30;1.60;;;24.40;50.20;;;;;;5089856;28;20382;-65
2022/05/22 04:42:34;;;;;;;2.42;1.40;;;24.40;50.20;;;;;;5090817;28;20455;-65
2022/05/22 04:45:00;;;;;;;2.58;1.50;;;24.40;50.20;;;;;;5091087;28;20382;-65
2022/05/22 04:47:26;;;;;;;2.78;1.60;;;24.40;50.10;;;;;;5091153;28;20481;-65
2022/05/22 04:49:51;;;;;;;1.67;1.40;;;24.40;50.20;;;;;;5091131;28;20378;-65
2022/05/22 04:52:17;;;;;;;3.00;1.60;;;24.40;50.10;;;;;;5090955;28;20417;-65
2022/05/22 04:54:43;;;;;;;1.92;1.50;;;24.40;50.10;;;;;;5090559;28;20386;-65
2022/05/22 04:57:08;;;;;;;1.97;1.50;;;24.40;50.20;;;;;;5090988;28;20417;-65
2022/05/22 04:59:34;;;;;;;2.30;1.48;;;24.40;50.20;;;;;;5091071;28;20747;-65
2022/05/22 05:02:01;;;;;;;2.30;1.53;;;24.40;50.20;;;;;;5091011;28;20491;-65
2022/05/22 05:04:27;;;;;;;4.32;1.50;;;24.40;50.50;;;;;;5090682;28;20858;-65
2022/05/22 05:06:52;;;;;;;2.40;1.57;;;24.40;50.40;;;;;;5092709;28;20386;-65
2022/05/22 05:09:18;;;;;;;1.83;1.50;;;24.40;50.40;;;;;;5094624;28;20390;-66
2022/05/22 05:11:44;;;;;;;1.90;1.40;;;24.40;50.20;;;;;;5094464;28;20917;-65
2022/05/22 05:14:10;;;;;;;3.22;1.58;;;24.40;50.50;;;;;;5094620;28;20390;-65
2022/05/22 05:16:35;;;;;;;2.65;1.40;;;24.40;50.50;;;;;;5093892;28;20401;-65
2022/05/22 05:19:01;;;;;;;1.87;1.33;;;24.40;50.30;;;;;;5094182;28;20394;-65
2022/05/22 05:21:28;;;;;;;2.25;1.50;;;24.40;50.40;;;;;;5093840;28;20374;-65
2022/05/22 05:23:55;;;;;;;3.00;1.60;;;24.40;50.30;;;;;;5093990;28;20893;-65
2022/05/22 05:26:22;;;;;;;2.20;1.50;;;24.40;50.40;;;;;;5094332;28;20397;-65
2022/05/22 05:28:48;;;;;;;2.60;1.60;;;24.40;50.50;;;;;;5093837;28;20800;-66
2022/05/22 05:31:14;;;;;;;3.40;1.60;;;24.40;50.50;;;;;;5094233;28;20404;-65
2022/05/22 05:33:39;;;;;;;2.40;1.40;;;24.40;50.50;;;;;;5094052;28;20862;-65
2022/05/22 05:36:09;;;;;;;1.50;1.20;;;24.40;50.50;;;;;;5093624;28;20390;-66
2022/05/22 05:38:35;;;;;;;2.42;1.55;;;24.40;50.50;;;;;;5093603;28;20394;-66
2022/05/22 05:41:01;;;;;;;2.33;1.60;;;24.40;50.60;;;;;;5094006;28;20413;-65
2022/05/22 05:43:27;;;;;;;3.17;1.77;;;24.40;50.80;;;;;;5093904;28;20796;-65
2022/05/22 05:45:52;;;;;;;2.35;1.60;;;24.40;53.00;;;;;;5093917;28;20382;-66
2022/05/22 05:48:18;;;;;;;2.30;1.60;;;24.50;52.90;;;;;;5094071;28;20455;-67
2022/05/22 05:50:44;;;;;;;3.57;1.60;;;24.50;52.10;;;;;;5093178;28;20950;-67
2022/05/22 05:53:09;;;;;;;2.13;1.40;;;24.60;52.00;;;;;;5093787;28;20398;-66
2022/05/22 05:55:35;;;;;;;3.10;1.50;;;24.50;52.40;;;;;;5093862;28;20378;-64
2022/05/22 05:58:03;;;;;;;3.22;1.50;;;24.60;51.90;;;;;;5093565;28;20778;-64
2022/05/22 06:00:29;;;;;;;3.42;1.50;;;24.60;51.30;;;;;;5092241;28;20395;-64
2022/05/22 06:02:55;;;;;;;2.03;1.63;;;24.70;51.20;;;;;;5093345;28;20524;-64
2022/05/22 06:05:22;;;;;;;3.85;1.50;;;24.60;50.20;;;;;;5093578;28;20469;-65
2022/05/22 06:07:51;;;;;;;3.80;1.40;;;24.60;50.50;;;;;;5093435;28;20455;-65
2022/05/22 06:10:19;;;;;;;3.97;1.80;;;24.60;50.70;;;;;;5093487;28;20874;-64
2022/05/22 06:12:46;;;;;;;4.43;1.67;;;24.60;50.50;;;;;;5092863;28;20394;-64
2022/05/22 06:15:13;;;;;;;4.10;1.70;;;24.60;50.00;;;;;;5093381;28;20393;-64
2022/05/22 06:17:44;;;;;;;4.43;1.70;;;24.60;50.00;;;;;;5092924;28;20410;-65
2022/05/22 06:20:13;;;;;;;3.67;1.60;;;24.70;50.30;;;;;;5091984;28;20799;-65
2022/05/22 06:22:38;;;;;;;5.72;1.55;;;24.70;50.50;;;;;;5092652;28;20378;-65
2022/05/22 06:25:08;;;;;;;4.28;1.58;;;24.70;50.50;;;;;;5091635;28;20388;-66
2022/05/22 06:27:34;;;;;;;2.55;1.65;;;24.70;50.70;;;;;;5093013;28;20854;-66
2022/05/22 06:29:59;;;;;;;6.25;1.90;;;24.70;50.60;;;;;;5093074;28;20480;-66
2022/05/22 06:32:25;;;;;;;7.40;2.17;;;24.70;50.50;;;;;;5092296;28;20398;-66
2022/05/22 06:34:51;;;;;;;9.10;2.55;;;24.80;50.60;;;;;;5090501;28;20382;-66
2022/05/22 06:37:20;;;;;;;8.25;2.05;;;24.90;51.00;;;;;;5092449;28;20770;-66
2022/05/22 06:39:53;;;;;;;6.72;2.60;;;24.90;50.70;;;;;;5092290;28;20382;-66
2022/05/22 06:42:25;;;;;;;8.38;2.30;;;25.00;50.40;;;;;;5092897;28;20382;-65
2022/05/22 06:45:00;;;;;;;8.05;2.33;;;25.00;49.80;;;;;;5092273;28;20461;-66
2022/05/22 06:47:27;;;;;;;7.55;2.10;;;25.00;49.20;;;;;;5092640;28;20473;-66
2022/05/22 06:49:54;;;;;;;9.02;2.22;;;25.00;48.70;;;;;;5091002;28;20896;-66
2022/05/22 06:52:20;;;;;;;5.95;2.15;;;25.00;48.80;;;;;;5091952;28;20466;-65
2022/05/22 06:54:46;;;;;;;6.53;2.50;;;24.90;48.70;;;;;;5091462;28;20472;-65
2022/05/22 06:57:15;;;;;;;5.37;2.00;;;24.90;48.20;;;;;;5092361;28;20515;-65
2022/05/22 06:59:42;;;;;;;3.88;2.35;;;24.90;48.50;;;;;;5092326;28;20786;-65
2022/05/22 07:02:07;;;;;;;6.83;2.43;;;25.00;48.80;;;;;;5092392;28;20477;-66
2022/05/22 07:04:33;;;;;;;6.00;2.10;;;25.00;48.70;;;;;;5092142;28;20462;-66
2022/05/22 07:06:59;;;;;;;4.63;2.20;;;25.00;48.40;;;;;;5091795;28;20409;-66
2022/05/22 07:09:25;;;;;;;6.32;2.30;;;25.00;48.20;;;;;;5092254;28;20378;-65
2022/05/22 07:11:54;;;;;;;4.63;2.20;;;24.90;48.30;;;;;;5091974;28;20894;-65
2022/05/22 07:14:20;;;;;;;4.65;2.17;;;25.00;48.00;;;;;;5092022;28;20381;-65
2022/05/22 07:16:46;;;;;;;5.85;2.00;;;25.00;47.90;;;;;;5090197;28;20405;-65
2022/05/22 07:19:13;;;;;;;3.67;2.00;;;25.00;48.00;;;;;;5091938;28;20398;-65
2022/05/22 07:21:39;;;;;;;4.43;2.25;;;25.00;47.60;;;;;;5090510;28;20374;-66
2022/05/22 07:24:05;;;;;;;3.70;2.50;;;24.90;47.50;;;;;;5099016;28;20824;-66
2022/05/22 07:26:31;;;;;;;5.18;2.05;;;24.90;48.00;;;;;;5091233;28;20392;-67
2022/05/22 07:28:58;;;;;;;4.43;2.28;;;24.90;47.90;;;;;;5090744;28;20931;-65
2022/05/22 07:31:26;;;;;;;7.25;2.20;;;24.90;48.10;;;;;;5089063;28;20959;-66
2022/05/22 07:33:52;;;;;;;5.10;2.10;;;24.90;48.00;;;;;;5091115;28;20390;-66
2022/05/22 07:36:19;;;;;;;6.60;2.10;;;24.90;47.90;;;;;;5091452;28;20390;-66
2022/05/22 07:38:45;;;;;;;7.15;2.10;;;24.90;47.90;;;;;;5089881;28;20398;-66
2022/05/22 07:41:12;;;;;;;4.32;2.00;;;24.90;47.90;;;;;;5091532;28;20370;-66
2022/05/22 07:43:38;;;;;;;3.45;1.92;;;24.90;47.90;;;;;;5091473;28;20391;-66
2022/05/22 07:46:04;;;;;;;4.43;2.00;;;24.90;47.90;;;;;;5091311;28;20375;-66
2022/05/22 07:48:30;;;;;;;4.13;1.90;;;24.90;47.90;;;;;;5091317;28;20394;-66
2022/05/22 07:50:58;;;;;;;4.45;1.83;;;24.90;48.00;;;;;;5091023;28;20406;-66
2022/05/22 07:53:24;;;;;;;3.83;2.00;;;24.90;48.00;;;;;;5091476;28;20446;-66
2022/05/22 07:55:50;;;;;;;4.45;1.92;;;24.90;48.10;;;;;;5091327;28;20386;-66
2022/05/22 07:58:17;;;;;;;3.10;1.92;;;24.90;48.00;;;;;;5091353;28;20406;-65
2022/05/22 08:00:43;;;;;;;4.10;2.00;;;24.90;48.00;;;;;;5084453;28;20409;-66
2022/05/22 08:03:11;;;;;;;4.40;2.28;;;24.90;47.80;;;;;;5090287;28;20478;-66
2022/05/22 08:05:37;;;;;;;4.60;2.20;;;24.90;47.80;;;;;;5091250;28;20389;-67
2022/05/22 08:08:03;;;;;;;4.50;2.50;;;24.80;48.00;;;;;;5091463;28;20386;-67
2022/05/22 08:10:28;;;;;;;5.10;2.20;;;24.90;48.00;;;;;;5090231;28;21054;-66
2022/05/22 08:12:54;;;;;;;5.30;2.70;;;24.80;47.70;;;;;;5090751;28;20389;-66
2022/05/22 08:15:23;;;;;;;5.03;2.70;;;24.80;47.40;;;;;;5089957;28;20474;-65
2022/05/22 08:17:49;;;;;;;5.95;2.95;;;24.80;47.30;;;;;;5090224;28;20491;-66
2022/05/22 08:20:19;;;;;;;10.02;3.40;;;24.80;46.80;;;;;;5089847;28;20811;-65
2022/05/22 08:22:45;;;;;;;5.15;2.83;;;24.80;46.60;;;;;;5068980;28;20399;-65
2022/05/22 08:25:14;;;;;;;6.15;2.83;;;24.80;46.50;;;;;;5070867;28;20467;-65
2022/05/22 08:27:40;;;;;;;5.78;2.92;;;24.80;46.20;;;;;;5070830;28;20387;-65
2022/05/22 08:30:07;;;;;;;6.53;3.13;;;24.80;46.00;;;;;;5070751;28;20484;-66
2022/05/22 08:32:37;;;;;;;6.30;2.72;;;24.70;45.60;;;;;;5079503;28;20477;-66
2022/05/22 08:35:05;;;;;;;7.70;2.80;;;24.80;45.90;;;;;;5089911;28;20378;-66
2022/05/22 08:37:31;;;;;;;7.65;2.70;;;24.80;46.10;;;;;;5086844;28;20421;-66
2022/05/22 08:39:57;;;;;;;6.47;2.70;;;24.80;45.50;;;;;;5089557;28;20485;-65
2022/05/22 08:42:41;;;;;;;6.73;2.50;;;24.80;45.50;;;;;;5093842;28;20933;-65
2022/05/22 08:45:14;;;;;;;4.68;2.35;;;24.70;45.40;;;;;;5093260;28;20397;-65
2022/05/22 08:48:06;;;;;;;5.00;2.50;;;24.70;45.30;;;;;;5092743;28;20398;-65
2022/05/22 08:50:33;;;;;;;4.93;2.25;;;24.70;45.00;;;;;;5092012;28;20991;-65
2022/05/22 08:53:01;;;;;;;8.48;2.20;;;24.70;44.80;;;;;;5073735;28;20395;-64
2022/05/22 09:01:17;;;;;;;6.70;2.50;;;24.70;45.10;;;;;;5073292;28;20425;-65
2022/05/22 09:03:54;;;;;;;6.53;2.30;;;24.70;45.30;;;;;;5056127;28;20384;-65
2022/05/22 09:06:27;;;;;;;4.47;2.42;;;24.70;45.10;;;;;;5073843;28;20909;-65
2022/05/22 09:08:54;;;;;;;5.80;2.40;;;24.70;45.60;;;;;;5072037;28;20404;-65
2022/05/22 09:11:26;;;;;;;5.15;2.00;;;24.70;45.90;;;;;;5073389;28;20985;-65
2022/05/22 09:14:01;;;;;;;4.27;2.23;;;24.70;45.90;;;;;;5073852;28;20384;-65
2022/05/22 09:16:30;;;;;;;2.95;2.00;;;24.70;46.10;;;;;;5073456;28;20450;-64
2022/05/22 09:19:17;;;;;;;3.72;2.05;;;24.70;46.10;;;;;;5072323;28;20392;-65
2022/05/22 09:21:51;;;;;;;3.25;2.00;;;24.80;46.20;;;;;;5070995;28;20743;-64
2022/05/22 09:24:57;;;;;;;2.53;1.92;;;24.80;46.30;;;;;;5035684;28;20405;-65
2022/05/22 09:28:02;;;;;;;2.88;1.98;;;24.80;46.40;;;;;;5053724;28;20413;-65
2022/05/22 09:30:27;;;;;;;2.90;1.92;;;24.80;46.50;;;;;;5056028;28;20911;-65
2022/05/22 09:33:00;;;;;;;4.40;2.00;;;24.70;46.50;;;;;;5072216;28;20388;-64
2022/05/22 09:35:32;;;;;;;2.60;1.80;;;24.70;46.60;;;;;;5055471;28;20396;-65
2022/05/22 09:38:00;;;;;;;3.90;2.00;;;24.70;46.60;;;;;;5073442;28;20415;-65
2022/05/22 09:40:45;;;;;;;3.92;2.00;;;24.70;46.80;;;;;;5055532;28;20419;-65
2022/05/22 09:43:51;;;;;;;4.32;1.90;;;24.80;46.90;;;;;;5072472;28;20375;-64
2022/05/22 09:46:46;;;;;;;3.25;1.90;;;24.80;46.90;;;;;;5073311;28;20392;-64
2022/05/22 09:49:27;;;;;;;2.65;2.00;;;24.70;46.90;;;;;;5055412;28;20383;-64
2022/05/22 09:52:05;;;;;;;3.03;2.00;;;24.80;47.00;;;;;;5083661;28;20433;-64
2022/05/22 09:54:50;;;;;;;2.92;2.03;;;24.80;47.00;;;;;;5091963;28;20386;-65
2022/05/22 09:57:44;;;;;;;2.90;2.00;;;24.80;47.10;;;;;;5089935;28;20746;-65
2022/05/22 10:00:25;;;;;;;2.67;1.77;;;24.80;47.10;;;;;;5091762;28;20390;-65
2022/05/22 10:03:02;;;;;;;3.90;1.90;;;24.80;47.70;;;;;;5092906;28;20387;-65
2022/05/22 10:05:37;;;;;;;2.85;1.83;;;24.80;47.10;;;;;;5093714;28;20394;-65
2022/05/22 10:08:25;;;;;;;2.65;1.88;;;24.80;47.20;;;;;;5092468;28;20476;-65
2022/05/22 10:11:19;;;;;;;3.72;1.88;;;24.80;47.30;;;;;;5089917;28;20479;-65
2022/05/22 10:14:06;;;;;;;2.10;1.70;;;24.80;47.30;;;;;;5090668;28;20943;-65
2022/05/22 10:17:06;;;;;;;3.20;1.70;;;24.80;47.60;;;;;;5092868;28;20406;-65
2022/05/22 10:19:53;;;;;;;3.58;1.98;;;24.80;47.40;;;;;;5093397;28;20866;-64
2022/05/22 10:22:51;;;;;;;2.15;1.63;;;24.80;47.30;;;;;;5093606;28;20738;-65
2022/05/22 10:25:44;;;;;;;2.72;1.80;;;24.70;47.40;;;;;;5060425;28;20402;-65
2022/05/22 10:28:22;;;;;;;2.72;2.10;;;24.70;47.40;;;;;;5089153;28;20414;-65
2022/05/22 10:31:18;;;;;;;3.30;1.65;;;24.70;47.40;;;;;;5089922;28;20444;-65
2022/05/22 10:34:01;;;;;;;2.53;1.70;;;24.80;47.50;;;;;;5088661;28;20393;-65
2022/05/22 10:36:41;;;;;;;2.40;1.63;;;24.70;47.40;;;;;;5092601;28;20378;-65
2022/05/22 10:39:10;;;;;;;2.30;1.73;;;24.70;47.50;;;;;;5091482;28;20482;-65
2022/05/22 10:44:57;;;;;;;2.92;1.80;;;24.70;47.50;;;;;;5086523;28;20452;-65
2022/05/22 10:47:32;;;;;;;1.80;1.50;;;24.80;47.60;;;;;;5095489;28;20426;-64
2022/05/22 10:50:00;;;;;;;2.30;1.50;;;24.80;47.60;;;;;;5092437;28;20479;-64
2022/05/22 10:52:31;;;;;;;1.92;1.52;;;24.80;47.60;;;;;;5107962;28;20417;-64
2022/05/22 10:54:57;;;;;;;2.60;1.77;;;24.80;47.60;;;;;;5094800;28;20390;-64
2022/05/22 10:57:32;;;;;;;1.90;1.70;;;24.80;47.60;;;;;;5089079;28;20496;-64
2022/05/22 11:00:17;;;;;;;3.00;1.80;;;24.80;47.70;;;;;;5088656;28;20378;-64
2022/05/22 11:02:43;;;;;;;2.53;1.90;;;24.80;47.80;;;;;;5089338;28;20397;-65
2022/05/22 11:05:22;;;;;;;2.97;1.90;;;24.80;48.90;;;;;;5087719;28;20463;-65
2022/05/22 11:07:51;;;;;;;2.88;1.70;;;24.80;48.60;;;;;;5090835;28;20886;-66
2022/05/22 11:10:35;;;;;;;3.78;1.77;;;24.90;48.80;;;;;;5090477;28;20489;-65
2022/05/22 11:13:07;;;;;;;2.85;1.95;;;24.80;48.40;;;;;;5086573;28;20488;-65
2022/05/22 11:15:37;;;;;;;2.50;1.85;;;24.90;48.30;;;;;;5071257;28;20409;-65
2022/05/22 11:18:03;;;;;;;2.95;1.90;;;24.90;48.30;;;;;;5090048;28;20425;-64
2022/05/22 11:20:30;;;;;;;2.13;1.70;;;24.90;48.30;;;;;;5091509;28;20512;-65
2022/05/22 11:22:58;;;;;;;3.70;2.10;;;24.90;48.50;;;;;;5090890;28;20402;-65
2022/05/22 11:25:31;;;;;;;4.32;2.10;;;24.90;47.80;;;;;;5107049;28;20739;-65
2022/05/22 11:27:59;;;;;;;4.38;2.00;;;24.90;47.70;;;;;;5091581;28;20382;-65
2022/05/22 11:30:49;;;;;;;4.25;2.10;;;24.90;47.60;;;;;;5090278;28;20487;-65
2022/05/22 11:33:46;;;;;;;9.77;2.10;;;24.90;48.10;;;;;;5070506;28;20443;-65
2022/05/22 11:36:39;;;;;;;7.47;2.10;;;24.90;48.70;;;;;;5070202;28;20505;-65
2022/05/22 11:39:33;;;;;;;5.70;2.20;;;24.90;49.50;;;;;;5075287;28;20873;-65
2022/05/22 11:42:15;;;;;;;5.43;2.00;;;25.00;50.50;;;;;;5090535;28;20382;-66
2022/05/22 11:45:18;;;;;;;6.28;2.17;;;25.10;50.50;;;;;;5088884;28;20481;-65
2022/05/22 11:48:02;;;;;;;8.55;2.28;;;25.10;50.80;;;;;;5089378;28;20925;-65
2022/05/22 11:50:38;;;;;;;5.63;2.10;;;25.20;51.20;;;;;;5090483;28;20413;-65
2022/05/22 11:53:30;;;;;;;4.55;2.10;;;25.20;50.70;;;;;;5089878;28;20390;-65
2022/05/22 11:55:59;;;;;;;6.60;2.10;;;25.20;50.40;;;;;;5084533;28;20826;-65
2022/05/22 11:58:52;;;;;;;2.70;1.70;;;25.20;50.00;;;;;;5089523;28;20463;-65
2022/05/22 12:01:34;;;;;;;4.47;1.80;;;25.20;49.90;;;;;;5089548;28;20381;-65
2022/05/22 12:04:21;;;;;;;4.20;1.75;;;25.30;49.60;;;;;;5090716;28;20413;-65
2022/05/22 12:06:50;;;;;;;3.97;1.90;;;25.30;49.50;;;;;;5089533;28;20409;-65
2022/05/22 12:09:37;;;;;;;7.15;2.10;;;25.30;49.70;;;;;;5072058;28;20479;-65
2022/05/22 12:12:25;;;;;;;4.30;1.92;;;25.30;49.90;;;;;;5069897;28;20779;-65
2022/05/22 12:15:12;;;;;;;6.70;2.00;;;25.30;49.40;;;;;;5051618;28;20453;-65
2022/05/22 12:17:55;;;;;;;4.00;1.90;;;25.30;49.90;;;;;;5092091;28;20425;-65
2022/05/22 12:20:46;;;;;;;4.07;1.80;;;25.30;49.30;;;;;;5074451;28;20393;-65
2022/05/22 12:23:26;;;;;;;2.97;1.80;;;25.30;49.10;;;;;;5075415;28;20390;-65
2022/05/22 12:26:06;;;;;;;4.22;2.00;;;25.30;49.00;;;;;;5094217;28;20957;-65
2022/05/22 12:28:43;;;;;;;2.85;1.70;;;25.30;48.90;;;;;;5075568;28;20431;-65
2022/05/22 12:31:33;;;;;;;2.75;2.00;;;25.30;48.80;;;;;;5093423;28;20940;-65
2022/05/22 12:34:05;;;;;;;3.58;1.70;;;25.30;49.30;;;;;;5094091;28;20378;-65
2022/05/22 12:36:32;;;;;;;4.32;1.77;;;25.40;48.90;;;;;;5074918;28;20456;-65
2022/05/22 12:39:08;;;;;;;2.58;1.92;;;25.30;48.60;;;;;;5092757;28;20394;-65
2022/05/22 12:41:42;;;;;;;2.70;1.92;;;25.40;48.70;;;;;;5091934;28;20393;-65
2022/05/22 12:44:08;;;;;;;3.70;1.92;;;25.40;48.60;;;;;;5093771;28;20389;-65
2022/05/22 12:46:36;;;;;;;5.63;2.00;;;25.40;48.60;;;;;;5075685;28;20882;-65
2022/05/22 12:49:10;;;;;;;4.97;2.00;;;25.40;48.60;;;;;;5075329;28;20546;-65
2022/05/22 12:51:42;;;;;;;3.13;1.70;;;25.40;49.00;;;;;;5093404;28;20398;-65
2022/05/22 12:54:28;;;;;;;3.03;1.80;;;25.40;48.60;;;;;;5096677;28;20530;-65
2022/05/22 12:57:04;;;;;;;2.80;1.90;;;25.40;48.40;;;;;;5092364;28;20885;-65
2022/05/22 12:59:30;;;;;;;4.78;1.83;;;25.40;48.50;;;;;;5094214;28;20390;-65
2022/05/22 13:01:58;;;;;;;2.80;1.80;;;25.40;48.40;;;;;;5094179;28;20893;-65
2022/05/22 13:05:01;;;;;;;2.83;1.70;;;25.50;48.40;;;;;;5093785;28;20382;-65
2022/05/22 13:07:34;;;;;;;3.50;1.90;;;25.50;48.70;;;;;;5011617;28;20520;-65
2022/05/22 13:10:11;;;;;;;3.58;1.80;;;25.50;48.40;;;;;;5076988;28;20390;-65
2022/05/22 13:12:39;;;;;;;2.72;1.52;;;25.50;48.40;;;;;;5091498;28;20405;-65
2022/05/22 13:15:04;;;;;;;3.20;1.67;;;25.50;48.40;;;;;;5093286;28;20383;-65
2022/05/22 13:17:50;;;;;;;3.27;1.60;;;25.40;48.30;;;;;;5091914;28;20404;-65
2022/05/22 13:20:25;;;;;;;4.80;1.75;;;25.40;48.30;;;;;;5091186;28;20444;-66
2022/05/22 13:23:02;;;;;;;2.58;1.80;;;25.40;48.30;;;;;;5090125;28;20462;-65